CYVM

Qikiqtarjuaq Airport

Qikiqtarjuaq, Canada
METAR CYVM 230700Z AUTO VRB02KT 9SM BKN060 OVC071 M26/M29 A2953 RMK SLP001
Observed Flight Rules
Feb-23 @ 07:00 UTC (54 minutes ago) Visual Flight Rules
Wind Visibility Clouds
Variable at 2 knots 9 miles
  • Broken at 6,000' AGL
  • Overcast at 7,100' AGL
Temperatures Readings
Current -26°C / -15°F
Dewpoint -29°C / -20°F
Humidity 76%
Altimeter 29.53" Hg
Pressure 1000.1 hPa
Elevation 6
METAR CYVM 230700Z AUTO VRB02KT 9SM BKN060 OVC071 M26/M29 A2953 RMK SLP001
Observed Flight Rules
Feb-23 @ 07:00 UTC
(54 minutes ago)
VFR
Wind Visibility
Variable at 2 knots 9 miles
Clouds
  • Broken at 6,000' AGL
  • Overcast at 7,100' AGL
Temperature Dewpoint
-26°C / -15°F -29°C / -20°F
Humidity Altimeter Pressure
76% 29.53" Hg 1000.1 hPa